Global Enterprise — 3FCJ6 — position and weather

sailwx.info

Track history (hours):
 
Tides and Currents Weather Stations Pressure Air Temp Water Temp Dewpoint Dewpoint Depression Visibility Wind Speed Wind Dir Waves Ship Positions

Global Enterprise

Last reported at 2017-Jul-21 18:14 UTC. Time now 2017-Jul-23 04:28 UTC.
Position N 38°39' E 123°45'.

Length 290 m; draft 18 m.

Type: Ship. MMSI: 356308000.

Date/timePositionNaut miles runAvg speedWind from/ knotsBaromVisibWave heightAir tempDewpointWater temp
2017-Jul-21 18:14N 38°39' E 123°45'25210.8
2017-Jul-20 18:55N 34°28' E 123°56'511.3
2017-Jul-20 18:28N 34°23' E 123°58'511.5
2017-Jul-20 18:00N 34°18' E 123°60'611.3
2017-Jul-20 17:30N 34°12' E 124°02'1011.4
2017-Jul-20 16:37N 34°03' E 124°05'211.4
2017-Jul-20 16:24N 34°00' E 124°06'511.4
2017-Jul-20 16:00N 33°56' E 124°08'611.5
2017-Jul-20 15:28N 33°51' E 124°11'2811.6
2017-Jul-20 13:06N 33°24' E 124°19'412.0
2017-Jul-20 12:48N 33°20' E 124°20'1512.0
2017-Jul-20 11:32N 33°06' E 124°25'112.0
2017-Jul-20 11:28N 33°05' E 124°26'611.9
2017-Jul-20 10:57N 32°59' E 124°28'511.7
2017-Jul-20 10:30N 32°54' E 124°30'611.5
2017-Jul-20 09:57N 32°48' E 124°32'511.2
2017-Jul-20 09:30N 32°43' E 124°33'611.3
2017-Jul-20 09:00N 32°38' E 124°35'612.1
2017-Jul-20 08:30N 32°32' E 124°37'611.8
2017-Jul-20 08:00N 32°26' E 124°39'511.0
2017-Jul-20 07:30N 32°21' E 124°40'510.0
2017-Jul-20 07:00N 32°16' E 124°42'14 9.8
2017-Jul-20 05:34N 32°03' E 124°47'1 9.6
2017-Jul-20 05:29N 32°02' E 124°47'5 9.6
2017-Jul-20 05:00N 31°57' E 124°48'2810.1
2017-Jul-20 02:11N 31°29' E 124°47'2110.7
2017-Jul-20 00:15N 31°08' E 124°46'411.3
2017-Jul-19 23:56N 31°05' E 124°46'511.3
2017-Jul-19 23:29N 30°59' E 124°46'3611.7
2017-Jul-19 20:24N 30°23' E 124°45'511.9
2017-Jul-19 19:59N 30°18' E 124°45'611.8
2017-Jul-19 19:30N 30°13' E 124°45'611.9
2017-Jul-19 18:58N 30°06' E 124°44'511.7
2017-Jul-19 18:30N 30°01' E 124°44'611.1
2017-Jul-19 17:56N 29°55' E 124°42'  
Track history (hours):
 
Tides and Currents Weather Stations Pressure Air Temp Water Temp Dewpoint Dewpoint Depression Visibility Wind Speed Wind Dir Waves Ship Positions

Global Enterprise

Last reported at 2017-Jul-21 18:14 UTC. Time now 2017-Jul-23 04:28 UTC.
Position N 38°39' E 123°45'.

Length 290 m; draft 18 m.

Type: Ship. MMSI: 356308000.

Date/timePositionNaut miles runAvg speedWind from/ knotsBaromVisibWave heightAir tempDewpointWater temp
2017-Jul-21 18:14N 38°39' E 123°45'25210.8
2017-Jul-20 18:55N 34°28' E 123°56'511.3
2017-Jul-20 18:28N 34°23' E 123°58'511.5
2017-Jul-20 18:00N 34°18' E 123°60'611.3
2017-Jul-20 17:30N 34°12' E 124°02'1011.4
2017-Jul-20 16:37N 34°03' E 124°05'211.4
2017-Jul-20 16:24N 34°00' E 124°06'511.4
2017-Jul-20 16:00N 33°56' E 124°08'611.5
2017-Jul-20 15:28N 33°51' E 124°11'2811.6
2017-Jul-20 13:06N 33°24' E 124°19'412.0
2017-Jul-20 12:48N 33°20' E 124°20'1512.0
2017-Jul-20 11:32N 33°06' E 124°25'112.0
2017-Jul-20 11:28N 33°05' E 124°26'611.9
2017-Jul-20 10:57N 32°59' E 124°28'511.7
2017-Jul-20 10:30N 32°54' E 124°30'611.5
2017-Jul-20 09:57N 32°48' E 124°32'511.2
2017-Jul-20 09:30N 32°43' E 124°33'611.3
2017-Jul-20 09:00N 32°38' E 124°35'612.1
2017-Jul-20 08:30N 32°32' E 124°37'611.8
2017-Jul-20 08:00N 32°26' E 124°39'511.0
2017-Jul-20 07:30N 32°21' E 124°40'510.0
2017-Jul-20 07:00N 32°16' E 124°42'14 9.8
2017-Jul-20 05:34N 32°03' E 124°47'1 9.6
2017-Jul-20 05:29N 32°02' E 124°47'5 9.6
2017-Jul-20 05:00N 31°57' E 124°48'2810.1
2017-Jul-20 02:11N 31°29' E 124°47'2110.7
2017-Jul-20 00:15N 31°08' E 124°46'411.3
2017-Jul-19 23:56N 31°05' E 124°46'511.3
2017-Jul-19 23:29N 30°59' E 124°46'3611.7
2017-Jul-19 20:24N 30°23' E 124°45'511.9
2017-Jul-19 19:59N 30°18' E 124°45'611.8
2017-Jul-19 19:30N 30°13' E 124°45'611.9
2017-Jul-19 18:58N 30°06' E 124°44'511.7
2017-Jul-19 18:30N 30°01' E 124°44'611.1
2017-Jul-19 17:56N 29°55' E 124°42'  

Dump ship's entire track history